createdAt,value
2022-08-09T00:01:40.319Z,31.74
2022-08-09T00:04:35.403Z,31.72
2022-08-09T00:07:10.483Z,31.73
2022-08-09T00:09:40.481Z,31.82
2022-08-09T00:12:22.388Z,31.79
2022-08-09T00:14:55.955Z,31.83
2022-08-09T00:18:10.433Z,31.68
2022-08-09T00:20:15.275Z,31.64
2022-08-09T00:22:44.909Z,31.65
2022-08-09T00:25:23.360Z,31.67
2022-08-09T00:28:03.927Z,31.74
2022-08-09T00:30:35.472Z,31.79
2022-08-09T00:33:03.861Z,31.76
2022-08-09T00:35:43.094Z,31.91
2022-08-09T00:38:15.256Z,31.79
2022-08-09T00:40:53.280Z,31.81
2022-08-09T00:44:10.786Z,31.85
2022-08-09T00:46:28.394Z,31.89
2022-08-09T00:49:01.242Z,31.90
2022-08-09T00:51:34.094Z,32.06
2022-08-09T00:54:22.963Z,31.95
2022-08-09T00:57:00.205Z,31.91
2022-08-09T00:59:46.313Z,32.01
2022-08-09T01:02:21.553Z,31.98
2022-08-09T01:05:22.031Z,31.86
2022-08-09T01:08:13.852Z,31.74
2022-08-09T01:10:53.671Z,31.75
2022-08-09T01:13:41.999Z,31.74
2022-08-09T01:16:24.964Z,31.74
2022-08-09T01:19:02.090Z,31.79
2022-08-09T01:21:53.556Z,31.50
2022-08-09T01:24:56.707Z,31.54
2022-08-09T01:27:29.236Z,31.59
2022-08-09T01:30:02.373Z,31.45
2022-08-09T01:32:45.993Z,31.26
2022-08-09T01:35:37.174Z,31.42
2022-08-09T01:38:15.059Z,31.31
2022-08-09T01:41:27.401Z,31.18
2022-08-09T01:44:01.520Z,31.29
2022-08-09T01:46:33.962Z,31.41
2022-08-09T01:49:10.045Z,31.18
2022-08-09T01:51:44.654Z,31.10
2022-08-09T01:54:40.412Z,31.33
2022-08-09T01:57:20.538Z,31.40
2022-08-09T01:59:59.889Z,31.28
2022-08-09T02:02:33.210Z,31.11
2022-08-09T02:05:15.330Z,30.98
2022-08-09T02:08:41.402Z,31.02
2022-08-09T02:10:50.879Z,30.91
2022-08-09T02:13:26.047Z,30.82
2022-08-09T02:16:08.002Z,30.84
2022-08-09T02:18:42.826Z,30.94
2022-08-09T02:21:22.086Z,30.93
2022-08-09T02:23:56.509Z,30.87
2022-08-09T02:26:29.382Z,30.92
2022-08-09T02:29:01.882Z,30.75
2022-08-09T02:31:38.436Z,30.92
2022-08-09T02:34:41.036Z,30.79
2022-08-09T02:37:14.479Z,30.80
2022-08-09T02:39:49.791Z,30.60
2022-08-09T02:42:28.511Z,30.56
2022-08-09T02:45:08.254Z,30.67
2022-08-09T02:47:57.717Z,30.75
2022-08-09T02:50:33.412Z,30.73
2022-08-09T02:53:08.698Z,30.65
2022-08-09T02:55:57.569Z,30.53
2022-08-09T02:58:36.916Z,30.57
2022-08-09T03:01:11.099Z,30.41
2022-08-09T03:04:17.914Z,30.47
2022-08-09T03:06:36.159Z,30.25
2022-08-09T03:09:06.676Z,30.14
2022-08-09T03:12:09.850Z,30.13
2022-08-09T03:14:28.260Z,30.26
2022-08-09T03:16:59.242Z,30.18
2022-08-09T03:19:58.680Z,30.16
2022-08-09T03:22:30.026Z,29.97
2022-08-09T03:25:06.285Z,30.06
2022-08-09T03:27:52.172Z,30.13
2022-08-09T03:30:29.377Z,29.97
2022-08-09T03:33:17.529Z,29.94
2022-08-09T03:36:13.003Z,30.05
2022-08-09T03:38:41.791Z,30.07
2022-08-09T03:41:18.688Z,30.21
2022-08-09T03:44:03.030Z,30.36
2022-08-09T03:46:37.082Z,30.28
2022-08-09T03:49:08.973Z,30.22
2022-08-09T03:51:56.868Z,30.18
2022-08-09T03:54:38.900Z,30.22
2022-08-09T03:57:19.966Z,30.02
2022-08-09T03:59:53.733Z,30.11
2022-08-09T04:02:28.309Z,30.26
2022-08-09T04:05:05.844Z,30.07
2022-08-09T04:07:52.440Z,30.19
2022-08-09T04:10:28.764Z,30.14
2022-08-09T04:13:04.374Z,30.11
2022-08-09T04:15:52.174Z,29.93
2022-08-09T04:18:22.226Z,29.91
2022-08-09T04:20:53.795Z,30.27
2022-08-09T04:23:24.554Z,29.98
2022-08-09T04:25:55.877Z,29.87
2022-08-09T04:28:33.483Z,29.85
2022-08-09T04:31:07.960Z,29.62
2022-08-09T04:33:47.401Z,29.65
2022-08-09T04:36:30.344Z,29.75
2022-08-09T04:39:05.092Z,29.97
2022-08-09T04:41:33.917Z,29.85
2022-08-09T04:44:14.501Z,30.26
2022-08-09T04:46:58.539Z,30.06
2022-08-09T04:49:53.071Z,30.13
2022-08-09T04:52:26.804Z,30.18
2022-08-09T04:55:04.703Z,30.24
2022-08-09T04:57:53.889Z,30.48
2022-08-09T05:00:22.956Z,30.31
2022-08-09T05:02:52.801Z,30.29
2022-08-09T05:05:32.471Z,30.34
2022-08-09T05:08:13.871Z,30.35
2022-08-09T05:10:44.825Z,30.38
2022-08-09T05:13:14.209Z,30.32
2022-08-09T05:15:52.122Z,30.26
2022-08-09T05:18:50.834Z,30.35
2022-08-09T05:21:24.432Z,30.30
2022-08-09T05:24:00.923Z,30.09
2022-08-09T05:26:36.728Z,30.22
2022-08-09T05:29:17.464Z,30.12
2022-08-09T05:31:52.129Z,30.02
2022-08-09T05:34:30.597Z,29.91
2022-08-09T05:37:07.375Z,30.04
2022-08-09T05:39:44.334Z,30.11
2022-08-09T05:42:20.622Z,30.03
2022-08-09T05:44:52.251Z,30.29
2022-08-09T05:47:22.692Z,30.36
2022-08-09T05:50:23.498Z,30.33
2022-08-09T05:52:44.361Z,30.27
2022-08-09T05:55:20.334Z,30.38
2022-08-09T05:57:56.543Z,30.37
2022-08-09T06:00:30.287Z,30.29
2022-08-09T06:03:01.117Z,30.16
2022-08-09T06:05:56.883Z,30.53
2022-08-09T06:08:24.529Z,30.63
2022-08-09T06:10:56.016Z,30.52
2022-08-09T06:13:25.368Z,30.99
2022-08-09T06:15:56.870Z,31.13
2022-08-09T06:18:25.881Z,30.93
2022-08-09T06:20:58.342Z,31.01
2022-08-09T06:23:58.724Z,31.12
2022-08-09T06:26:20.911Z,31.14
2022-08-09T06:29:00.330Z,30.96
2022-08-09T06:31:39.225Z,31.03
2022-08-09T06:34:09.508Z,30.96
2022-08-09T06:36:37.780Z,31.27
2022-08-09T06:39:12.942Z,31.18
2022-08-09T06:42:09.352Z,31.19
2022-08-09T06:44:32.940Z,31.40
2022-08-09T06:47:01.915Z,31.48
2022-08-09T06:50:11.433Z,31.55
2022-08-09T06:52:18.915Z,31.55
2022-08-09T06:54:51.673Z,31.75
2022-08-09T06:57:25.994Z,31.74
2022-08-09T07:00:51.495Z,31.67
2022-08-09T07:03:00.816Z,31.79
2022-08-09T07:06:02.240Z,31.78
2022-08-09T07:08:22.438Z,31.84
2022-08-09T07:10:52.936Z,31.92
2022-08-09T07:13:28.185Z,32.02
2022-08-09T07:16:40.354Z,32.17
2022-08-09T07:18:47.316Z,32.29
2022-08-09T07:21:15.945Z,32.28
2022-08-09T07:23:56.625Z,32.30
2022-08-09T07:26:26.826Z,32.31
2022-08-09T07:29:08.917Z,32.12
2022-08-09T07:31:45.247Z,32.43
2022-08-09T07:34:20.108Z,32.54
2022-08-09T07:36:50.422Z,32.44
2022-08-09T07:39:40.241Z,32.55
2022-08-09T07:42:10.071Z,32.52
2022-08-09T07:44:51.113Z,32.71
2022-08-09T07:47:39.493Z,32.39
2022-08-09T07:50:10.814Z,32.63
2022-08-09T07:52:43.113Z,32.78
2022-08-09T07:55:11.542Z,32.74
2022-08-09T07:57:46.490Z,32.60
2022-08-09T08:00:20.713Z,32.30
2022-08-09T08:03:08.069Z,32.71
2022-08-09T08:05:53.708Z,32.05
2022-08-09T08:09:01.457Z,32.70
2022-08-09T08:12:11.480Z,33.00
2022-08-09T08:14:02.684Z,32.42
2022-08-09T08:16:32.531Z,31.95
2022-08-09T08:19:04.646Z,32.01
2022-08-09T08:21:32.826Z,32.52
2022-08-09T08:24:11.806Z,32.68
2022-08-09T08:26:41.963Z,33.07
2022-08-09T08:29:28.605Z,32.74
2022-08-09T08:32:08.465Z,31.95
2022-08-09T08:34:41.382Z,32.80
2022-08-09T08:37:14.299Z,32.83
2022-08-09T08:39:44.560Z,32.32
2022-08-09T08:42:14.339Z,31.80
2022-08-09T08:44:46.301Z,32.23
2022-08-09T08:47:16.164Z,31.92
2022-08-09T08:49:47.970Z,32.19
2022-08-09T08:52:53.108Z,33.09
2022-08-09T08:55:09.710Z,33.03
2022-08-09T08:57:38.232Z,32.68
2022-08-09T09:00:17.062Z,32.54
2022-08-09T09:03:08.320Z,33.17
2022-08-09T09:06:00.755Z,33.63
2022-08-09T09:08:37.826Z,32.42
2022-08-09T09:11:17.482Z,33.15
2022-08-09T09:13:56.743Z,33.10
2022-08-09T09:16:35.747Z,33.44
2022-08-09T09:19:37.598Z,33.90
2022-08-09T09:22:11.491Z,33.42
2022-08-09T09:24:59.112Z,32.68
2022-08-09T09:28:05.841Z,33.42
2022-08-09T09:30:41.035Z,33.27
2022-08-09T09:33:15.990Z,34.36
2022-08-09T09:36:01.723Z,34.45
2022-08-09T09:38:50.433Z,34.06
2022-08-09T09:41:27.848Z,34.50
2022-08-09T09:44:12.960Z,33.63
2022-08-09T09:46:45.897Z,34.32
2022-08-09T09:49:31.695Z,33.26
2022-08-09T09:52:16.555Z,32.45
2022-08-09T09:55:24.062Z,32.96
2022-08-09T09:58:16.444Z,32.68
2022-08-09T10:00:53.768Z,32.14
2022-08-09T10:03:44.062Z,33.00
2022-08-09T10:06:13.883Z,32.95
2022-08-09T10:08:55.035Z,32.70
2022-08-09T10:12:00.587Z,33.33
2022-08-09T10:14:30.514Z,34.09
2022-08-09T10:17:17.167Z,35.16
2022-08-09T10:19:53.132Z,35.28
2022-08-09T10:22:34.782Z,35.67
2022-08-09T10:25:12.406Z,35.98
2022-08-09T10:27:45.252Z,34.17
2022-08-09T10:34:04.432Z,35.60
2022-08-09T10:36:09.422Z,34.93
2022-08-09T10:38:56.801Z,33.89
2022-08-09T10:41:28.495Z,34.50
2022-08-09T10:43:59.529Z,33.90
2022-08-09T10:46:52.349Z,32.97
2022-08-09T10:50:15.083Z,33.69
2022-08-09T10:53:19.462Z,34.24
2022-08-09T10:55:57.850Z,33.74
2022-08-09T10:58:37.479Z,34.82
2022-08-09T11:03:06.856Z,34.97
2022-08-09T11:04:10.181Z,35.57
2022-08-09T11:07:00.087Z,34.48
2022-08-09T11:09:38.344Z,33.63
2022-08-09T11:16:33.443Z,35.16
2022-08-09T11:19:10.666Z,36.69
2022-08-09T11:22:10.322Z,36.22
2022-08-09T11:25:18.666Z,35.20
2022-08-09T11:28:09.303Z,34.27
2022-08-09T11:30:48.074Z,33.40
2022-08-09T11:33:19.388Z,33.98
2022-08-09T11:35:57.125Z,34.45
2022-08-09T11:38:33.235Z,33.93
2022-08-09T11:41:13.106Z,34.65
2022-08-09T11:43:52.445Z,34.46
2022-08-09T11:46:32.976Z,34.52
2022-08-09T11:49:05.275Z,34.68
2022-08-09T11:53:04.112Z,34.78
2022-08-09T11:55:52.369Z,35.96
2022-08-09T11:58:33.950Z,33.52
2022-08-09T12:01:15.410Z,34.73
2022-08-09T12:04:09.645Z,34.75
2022-08-09T12:06:56.589Z,34.44
2022-08-09T12:09:33.605Z,35.24
2022-08-09T12:12:13.151Z,35.32
2022-08-09T12:15:08.187Z,35.35
2022-08-09T12:17:44.329Z,36.08
2022-08-09T12:20:24.063Z,36.38
2022-08-09T12:22:56.134Z,35.40
2022-08-09T12:25:35.660Z,35.86
2022-08-09T12:29:10.808Z,34.85
2022-08-09T12:31:10.789Z,34.83
2022-08-09T12:34:01.016Z,36.03
2022-08-09T12:36:33.635Z,35.66
2022-08-09T12:39:02.577Z,35.35
2022-08-09T12:41:39.644Z,34.93
2022-08-09T12:44:10.379Z,35.68
2022-08-09T12:46:48.831Z,35.86
2022-08-09T12:49:20.865Z,36.94
2022-08-09T12:52:01.709Z,35.58
2022-08-09T12:55:03.205Z,35.23
2022-08-09T12:57:47.332Z,35.45
2022-08-09T13:00:23.447Z,36.01
2022-08-09T13:03:02.571Z,36.90
2022-08-09T13:05:51.575Z,36.33
2022-08-09T13:08:41.013Z,36.03
2022-08-09T13:11:25.982Z,35.33
2022-08-09T13:14:41.102Z,35.61
2022-08-09T13:16:58.510Z,35.66
2022-08-09T13:20:09.305Z,35.69
2022-08-09T13:23:02.190Z,35.59
2022-08-09T13:25:24.650Z,35.25
2022-08-09T13:27:55.656Z,35.61
2022-08-09T13:30:50.004Z,34.80
2022-08-09T13:33:24.837Z,36.41
2022-08-09T13:36:38.708Z,36.75
2022-08-09T13:39:08.150Z,37.43
2022-08-09T13:41:57.506Z,37.17
2022-08-09T13:44:29.831Z,36.89
2022-08-09T13:47:29.789Z,38.37
2022-08-09T13:49:57.606Z,37.10
2022-08-09T13:52:31.135Z,37.38
2022-08-09T13:55:05.084Z,36.98
2022-08-09T13:57:55.992Z,36.49
2022-08-09T14:00:29.625Z,36.55
2022-08-09T14:03:03.155Z,34.78
2022-08-09T14:05:59.404Z,36.54
2022-08-09T14:08:31.736Z,36.65
2022-08-09T14:11:01.246Z,36.31
2022-08-09T14:14:22.087Z,38.15
2022-08-09T14:16:28.175Z,38.09
2022-08-09T14:18:58.357Z,37.70
2022-08-09T14:21:29.266Z,38.10
2022-08-09T14:24:10.281Z,37.32
2022-08-09T14:26:51.731Z,37.11
2022-08-09T14:30:03.891Z,36.55
2022-08-09T14:32:11.169Z,37.49
2022-08-09T14:34:41.548Z,37.37
2022-08-09T14:37:10.015Z,38.93
2022-08-09T14:39:46.842Z,36.98
2022-08-09T14:42:30.232Z,36.17
2022-08-09T14:46:46.420Z,36.17
2022-08-09T14:47:56.845Z,36.72
2022-08-09T14:50:25.924Z,37.16
2022-08-09T14:52:55.847Z,36.19
2022-08-09T14:55:24.020Z,37.50
2022-08-09T14:57:53.443Z,37.33
2022-08-09T15:00:22.670Z,37.20
2022-08-09T15:02:52.234Z,38.19
2022-08-09T15:05:20.904Z,36.78
2022-08-09T15:07:55.971Z,36.34
2022-08-09T15:10:31.484Z,35.80
2022-08-09T15:13:03.177Z,35.75
2022-08-09T15:15:34.474Z,36.68
2022-08-09T15:18:14.121Z,37.26
2022-08-09T15:21:57.884Z,36.99
2022-08-09T15:24:09.058Z,38.06
2022-08-09T15:26:30.918Z,37.77
2022-08-09T15:29:04.500Z,38.57
2022-08-09T15:31:41.314Z,39.19
2022-08-09T15:34:31.163Z,38.41
2022-08-09T15:37:03.873Z,39.05
2022-08-09T15:39:34.772Z,38.67
2022-08-09T15:42:18.874Z,38.18
2022-08-09T15:44:47.692Z,37.99
2022-08-09T15:47:21.735Z,38.14
2022-08-09T15:50:04.438Z,37.82
2022-08-09T15:52:39.091Z,36.93
2022-08-09T15:55:24.362Z,37.61
2022-08-09T15:57:52.553Z,36.47
2022-08-09T16:00:26.206Z,36.84
2022-08-09T16:02:56.720Z,37.92
2022-08-09T16:05:47.684Z,37.66
2022-08-09T16:08:30.996Z,37.24
2022-08-09T16:11:04.021Z,37.80
2022-08-09T16:14:02.930Z,37.63
2022-08-09T16:16:28.282Z,37.84
2022-08-09T16:18:56.945Z,38.08
2022-08-09T16:21:26.371Z,38.43
2022-08-09T16:24:02.705Z,39.03
2022-08-09T16:26:34.629Z,37.74
2022-08-09T16:29:12.408Z,36.85
2022-08-09T16:32:18.317Z,37.84
2022-08-09T16:34:53.455Z,37.87
2022-08-09T16:37:54.810Z,38.27
2022-08-09T16:40:12.541Z,37.75
2022-08-09T16:42:45.177Z,38.02
2022-08-09T16:45:20.280Z,38.35
2022-08-09T16:48:40.999Z,36.90
2022-08-09T16:50:40.691Z,37.17
2022-08-09T16:53:32.356Z,37.11
2022-08-09T16:56:09.918Z,37.58
2022-08-09T16:58:49.862Z,36.97
2022-08-09T17:01:23.592Z,36.96
2022-08-09T17:03:54.721Z,37.07
2022-08-09T17:06:31.675Z,36.50
2022-08-09T17:09:43.520Z,36.88
2022-08-09T17:11:52.597Z,36.48
2022-08-09T17:14:27.346Z,36.47
2022-08-09T17:17:00.937Z,35.74
2022-08-09T17:20:04.933Z,35.18
2022-08-09T17:22:28.916Z,35.31
2022-08-09T17:25:03.400Z,35.22
2022-08-09T17:27:38.093Z,34.93
2022-08-09T17:30:12.983Z,34.50
2022-08-09T17:32:44.251Z,35.01
2022-08-09T17:35:15.233Z,34.94
2022-08-09T17:38:02.722Z,35.16
2022-08-09T17:40:35.604Z,34.65
2022-08-09T17:43:33.006Z,35.09
2022-08-09T17:46:05.826Z,34.87
2022-08-09T17:48:38.710Z,34.82
2022-08-09T17:51:18.544Z,34.89
2022-08-09T17:53:52.904Z,34.35
2022-08-09T17:56:28.839Z,34.47
2022-08-09T17:59:11.887Z,33.97
2022-08-09T18:02:07.757Z,34.42
2022-08-09T18:04:33.978Z,34.14
2022-08-09T18:07:07.866Z,33.97
2022-08-09T18:09:41.413Z,34.22
2022-08-09T18:12:19.771Z,34.19
2022-08-09T18:14:54.660Z,33.60
2022-08-09T18:18:02.577Z,33.63
2022-08-09T18:20:55.365Z,33.48
2022-08-09T18:23:07.250Z,33.78
2022-08-09T18:25:50.827Z,33.63
2022-08-09T18:30:42.989Z,33.97
2022-08-09T18:31:14.842Z,33.91
2022-08-09T18:33:54.026Z,34.02
2022-08-09T18:36:26.078Z,33.55
2022-08-09T18:39:02.704Z,33.74
2022-08-09T18:41:34.235Z,33.44
2022-08-09T18:44:13.588Z,33.42
2022-08-09T18:46:47.709Z,33.64
2022-08-09T18:49:23.494Z,33.55
2022-08-09T18:51:55.192Z,33.54
2022-08-09T18:54:29.974Z,33.70
2022-08-09T18:57:06.113Z,33.56
2022-08-09T18:59:37.387Z,33.55
2022-08-09T19:02:19.214Z,33.46
2022-08-09T19:05:04.126Z,33.58
2022-08-09T19:07:37.218Z,33.46
2022-08-09T19:10:17.326Z,33.47
2022-08-09T19:12:55.941Z,33.24
2022-08-09T19:15:36.099Z,33.31
2022-08-09T19:18:06.538Z,33.38
2022-08-09T19:20:45.762Z,33.42
2022-08-09T19:24:35.953Z,33.23
2022-08-09T19:26:14.221Z,33.33
2022-08-09T19:28:48.808Z,33.27
2022-08-09T19:35:58.555Z,33.31
2022-08-09T19:38:27.967Z,33.43
2022-08-09T19:41:02.095Z,33.64
2022-08-09T19:43:58.032Z,33.80
2022-08-09T19:46:34.251Z,33.64
2022-08-09T19:50:07.373Z,33.59
2022-08-09T19:51:55.707Z,33.73
2022-08-09T19:54:26.671Z,33.62
2022-08-09T19:56:56.556Z,33.55
2022-08-09T19:59:58.515Z,33.62
2022-08-09T20:04:11.317Z,33.56
2022-08-09T20:05:10.286Z,33.71
2022-08-09T20:07:59.578Z,33.77
2022-08-09T20:10:36.842Z,33.56
2022-08-09T20:13:07.129Z,33.45
2022-08-09T20:16:32.901Z,33.41
2022-08-09T20:18:28.053Z,33.33
2022-08-09T20:20:57.696Z,33.21
2022-08-09T20:23:39.245Z,33.16
2022-08-09T20:26:13.228Z,33.20
2022-08-09T20:28:47.885Z,32.97
2022-08-09T20:31:17.768Z,32.95
2022-08-09T20:33:52.400Z,33.06
2022-08-09T20:36:27.450Z,32.99
2022-08-09T20:40:13.096Z,32.86
2022-08-09T20:41:44.999Z,32.77
2022-08-09T20:44:26.806Z,32.88
2022-08-09T20:46:57.941Z,32.89
2022-08-09T20:49:28.624Z,32.70
2022-08-09T20:51:57.170Z,32.92
2022-08-09T20:54:29.910Z,32.70
2022-08-09T20:56:58.220Z,32.74
2022-08-09T21:00:20.025Z,32.71
2022-08-09T21:02:18.653Z,32.70
2022-08-09T21:05:57.615Z,32.84
2022-08-09T21:07:40.197Z,32.58
2022-08-09T21:10:11.519Z,32.69
2022-08-09T21:12:40.570Z,32.59
2022-08-09T21:15:34.597Z,32.36
2022-08-09T21:18:22.256Z,32.18
2022-08-09T21:20:54.612Z,32.28
2022-08-09T21:23:36.008Z,32.08
2022-08-09T21:26:15.636Z,32.16
2022-08-09T21:28:51.778Z,32.22
2022-08-09T21:31:49.270Z,32.07
2022-08-09T21:34:16.189Z,32.09
2022-08-09T21:36:57.302Z,31.95
2022-08-09T21:39:28.127Z,31.73
2022-08-09T21:42:11.272Z,31.77
2022-08-09T21:44:42.805Z,31.95
2022-08-09T21:47:17.440Z,31.92
2022-08-09T21:49:48.651Z,31.95
2022-08-09T21:52:20.685Z,31.85
2022-08-09T21:55:03.033Z,31.80
2022-08-09T21:57:39.636Z,31.77
2022-08-09T22:00:32.377Z,31.62
2022-08-09T22:03:05.834Z,31.84
2022-08-09T22:05:37.077Z,31.64
2022-08-09T22:08:12.980Z,31.65
2022-08-09T22:11:48.991Z,31.71
2022-08-09T22:13:37.573Z,31.60
2022-08-09T22:16:09.124Z,31.68
2022-08-09T22:18:52.981Z,31.62
2022-08-09T22:21:45.350Z,31.68
2022-08-09T22:24:24.089Z,31.70
2022-08-09T22:26:54.460Z,31.65
2022-08-09T22:29:28.913Z,31.68
2022-08-09T22:32:07.649Z,31.48
2022-08-09T22:35:02.702Z,31.77
2022-08-09T22:37:40.590Z,31.72
2022-08-09T22:40:19.936Z,31.60
2022-08-09T22:42:49.231Z,31.35
2022-08-09T22:48:13.475Z,31.55
2022-08-09T22:48:17.932Z,31.57
2022-08-09T22:50:54.101Z,31.45
2022-08-09T22:53:22.869Z,31.44
2022-08-09T22:56:29.531Z,31.45
2022-08-09T22:58:39.708Z,31.39
2022-08-09T23:01:08.828Z,31.44
2022-08-09T23:04:04.301Z,31.27
2022-08-09T23:06:35.117Z,30.89
2022-08-09T23:09:06.546Z,30.32
2022-08-09T23:11:35.264Z,30.32
2022-08-09T23:14:10.153Z,30.53
2022-08-09T23:16:46.020Z,30.38
2022-08-09T23:19:14.250Z,30.29
2022-08-09T23:21:43.255Z,30.61
2022-08-09T23:24:11.701Z,30.27
2022-08-09T23:26:40.670Z,30.11
2022-08-09T23:29:14.172Z,30.49
2022-08-09T23:31:42.900Z,30.66
2022-08-09T23:34:11.262Z,30.71
2022-08-09T23:36:39.563Z,30.91
2022-08-09T23:39:08.580Z,31.10
2022-08-09T23:41:36.879Z,30.89
2022-08-09T23:44:05.803Z,30.83
2022-08-09T23:46:35.150Z,30.91
2022-08-09T23:49:03.313Z,31.05
2022-08-09T23:51:31.710Z,31.41
2022-08-09T23:54:02.621Z,31.41
2022-08-09T23:56:52.631Z,31.33
2022-08-09T23:59:22.571Z,31.36
